This is the latest recevied weather packets stored in our database for station/object WX5RP. If no packets are shown the sender has not sent any weather packets the latest 10 day(s).
| Time | Temp. | Humidity | Pressure | Rain* | Wind** | Luminosity | Snow |
|---|---|---|---|---|---|---|---|
| 1787611816 | 31.11° C | 18% | 1017.8 hPa | 0 mm | - | 547 W/m² | - |
| 1787611215 | 31.67° C | 24% | 1018.4 hPa | 0 mm | - | 591 W/m² | - |
| 1787610615 | 31.67° C | 18% | 1018.2 hPa | 0 mm | - | 800 W/m² | - |
| 1787610015 | 31.11° C | 19% | 1018.3 hPa | 0 mm | - | 824 W/m² | - |
| 1787609415 | 30.56° C | 20% | 1018.5 hPa | 0 mm | - | 519 W/m² | - |
| 1787608817 | 30° C | 18% | 1018.2 hPa | 0 mm | - | 745 W/m² | - |
| 1787608217 | 30° C | 21% | 1018.8 hPa | 0 mm | - | 150 W/m² | - |
| 1787607617 | 30° C | 17% | 1018.8 hPa | 0 mm | - | 916 W/m² | - |
| 1787607017 | 30° C | 18% | 1019.1 hPa | 0 mm | - | 926 W/m² | - |
| 1787606417 | 29.44° C | 21% | 1019.4 hPa | 0 mm | - | 758 W/m² | - |
| 1787605817 | 30° C | 21% | 1019.5 hPa | 0 mm | - | 935 W/m² | - |
| 1787605217 | 29.44° C | 19% | 1019.2 hPa | 0 mm | - | 942 W/m² | - |
| 1787604617 | 28.89° C | 21% | 1019.4 hPa | 0 mm | - | 863 W/m² | - |
| 1787604017 | 29.44° C | 20% | 1019.4 hPa | 0 mm | - | 896 W/m² | - |
| 1787603417 | 28.89° C | 20% | 1019.1 hPa | 0 mm | - | 879 W/m² | - |
| 1787602817 | 29.44° C | 20% | 1019.3 hPa | 0 mm | - | 917 W/m² | - |
| 1787602217 | 28.33° C | 19% | 1019.4 hPa | 0 mm | - | 972 W/m² | - |
| 1787601617 | 28.33° C | 20% | 1019.7 hPa | 0 mm | - | 996 W/m² | - |
| 1787601016 | 28.33° C | 22% | 1019.8 hPa | 0 mm | - | 985 W/m² | - |
| 1787600417 | 27.78° C | 21% | 1020.2 hPa | 0 mm | - | 964 W/m² | - |
| 1787599816 | 27.78° C | 21% | 1020.8 hPa | 0 mm | - | 953 W/m² | - |
| 1787599217 | 27.22° C | 22% | 1020.9 hPa | 0 mm | - | 961 W/m² | - |
| 1787598617 | 26.67° C | 22% | 1020.1 hPa | 0 mm | - | 943 W/m² | - |
| 1787598016 | 26.67° C | 22% | 1020.1 hPa | 0 mm | - | 962 W/m² | - |
| 1787597416 | 25.56° C | 24% | 1020.6 hPa | 0 mm | - | 974 W/m² | - |
* Rain latest hour (hover to see other rain measurements)
** Current wind speed in m/s (hover to see current wind gust speed)